Terminal Aerodrome Forecast
Issued by NWS

Current Version | Previous Version | Text Only | Print | Product List | Glossary On
Versions: 1 2 3 4 5 6 7 8 9 10 11 12
439
FTUS45 KABQ 161722
TAFSAF
TAF
KSAF 161722Z 1618/1718 36010KT P6SM SKC
     FM161900 26009KT P6SM SKC
     FM170200 36005KT P6SM FEW250
     FM171200 36011KT P6SM FEW250=

USA.gov is the U.S. government's official web portal to all federal, state and local government web resources and services.